March ARB Airport Riverside US
ICAO: KRIV
IATA: RIV
Category: Medium
Scheduled Services: No

Elevation: 1536 ft
TransAlt. 18000 ft.

Airport Communications:
APP/DEP:119.25
ATIS:134.75
GND/CLNC DEL:121.75
ANG OPS:29.37
PMSV METRO:23.98
COMD POST:31.1
PTD:37.22
RIVERSIDE RDO:113.4
TWR:127.65

KRIV Zoom In..

Runways:

(A) RW 12 length 3059 ft width 100 ft
---- / hdg 121

(B) RW 14 length 13300 ft width 200 ft
---- / hdg 136

(C) RW 30 length 3059 ft width 100 ft
---- / hdg 301

(D) RW 32 length 13300 ft width 200 ft
ILS 110.10 / hdg 316

Location; KRIV
Day. 29 / Time. 22.58 Zulu
* Altimeter: 30.03
* Temperature: 16° c. 60.8°f.
* Wind from: 300° Speed 07 kn.
Dewpoint: 05° c.
Visibility: 10 Statute Miles.
Clouds: Clear (automated report).

KRIV 292258Z AUTO 30007KT 10SM CLR 16/05 A3003 RMK AO2 SLP170 T01640054


Wind From 300°
Speed 07 kn.

 
 
jpsmedia worldairports.se 2020   terms of use